ID Time Temp Humidity Light PM2.5 PM10 Voltage Extra Firmware Position Fcnt TTN version Gateways Distance RSSI LSNR Radiosettings
2026-05-07 18:06:59 15.625°C 96% 5 μg/m³ 7 μg/m³ 3.29V v255 52.0796 / 5.11285 6074 ttn.v3 - -111 -14.25 868.3MHz, SF9BW125, 4/5CR
2026-05-07 17:50:51 16.125°C 93.5% 2 μg/m³ 3 μg/m³ 3.29V v255 52.0796 / 5.11285 6073 ttn.v3 2.825km -116 -0.5 867.3MHz, SF9BW125, 4/5CR
2026-05-07 17:34:43 16.5°C 93.3125% 2 μg/m³ 2 μg/m³ 3.29V v255 52.0796 / 5.11285 6072 ttn.v3 2.825km -118 -3.5 868.1MHz, SF9BW125, 4/5CR
1.177km -124 -8.2 868.1MHz, SF9BW125, 4/5CR
2026-05-07 17:18:35 16.6875°C 92.875% 3 μg/m³ 3 μg/m³ 3.29V v255 52.0796 / 5.11285 6071 ttn.v3 2.825km -117 -3.75 867.1MHz, SF9BW125, 4/5CR
1.177km -124 -11.5 867.1MHz, SF9BW125, 4/5CR
2026-05-07 17:02:27 16.625°C 94% 5 μg/m³ 6 μg/m³ 3.29V v255 52.0796 / 5.11285 6070 ttn.v3 2.825km -116 -5 868.5MHz, SF9BW125, 4/5CR
2026-05-07 16:46:19 16.5°C 92.5625% 2 μg/m³ 2 μg/m³ 3.29V v255 52.0796 / 5.11285 6069 ttn.v3 2.825km -117 -1 867.9MHz, SF9BW125, 4/5CR
- -117 -6 867.9MHz, SF9BW125, 4/5CR
2026-05-07 16:14:02 16.375°C 91.8125% 1 μg/m³ 2 μg/m³ 3.29V v255 52.0796 / 5.11285 6067 ttn.v3 2.825km -115 0.5 867.7MHz, SF9BW125, 4/5CR
1.177km -124 -12.2 867.7MHz, SF9BW125, 4/5CR
2026-05-07 15:57:54 16.75°C 91.9375% 3 μg/m³ 4 μg/m³ 3.29V v255 52.0796 / 5.11285 6066 ttn.v3 2.825km -117 -1.25 868.1MHz, SF9BW125, 4/5CR
1.177km -124 -9.5 868.1MHz, SF9BW125, 4/5CR
2026-05-07 15:41:46 16.5625°C 90.25% 4 μg/m³ 6 μg/m³ 3.29V v255 52.0796 / 5.11285 6065 ttn.v3 2.825km -117 -7.25 867.5MHz, SF9BW125, 4/5CR
2026-05-07 15:25:38 16.125°C 92.9375% 1 μg/m³ 1 μg/m³ 3.29V v255 52.0796 / 5.11285 6064 ttn.v3 2.825km -116 -6.75 868.5MHz, SF9BW125, 4/5CR
2026-05-07 15:09:30 16.25°C 97.25% 8 μg/m³ 13 μg/m³ 3.29V v255 52.0796 / 5.11285 6063 ttn.v3 2.825km -117 -2 867.3MHz, SF9BW125, 4/5CR
- -121 -8.75 867.3MHz, SF9BW125, 4/5CR
1.177km -124 -11.2 867.3MHz, SF9BW125, 4/5CR
2026-05-07 14:37:14 16.125°C 97.125% 1 μg/m³ 1 μg/m³ 3.29V v255 52.0796 / 5.11285 6061 ttn.v3 2.825km -117 -2.25 867.1MHz, SF9BW125, 4/5CR
- -127 -11.75 867.1MHz, SF9BW125, 4/5CR
1.177km -125 -14 867.1MHz, SF9BW125, 4/5CR
2026-05-07 14:21:06 16.0625°C 94.4375% 4 μg/m³ 5 μg/m³ 3.29V v255 52.0796 / 5.11285 6060 ttn.v3 1.177km -124 -11.8 868.1MHz, SF9BW125, 4/5CR
2026-05-07 14:04:58 16.1875°C 96.875% 2 μg/m³ 3 μg/m³ 3.29V v255 52.0796 / 5.11285 6059 ttn.v3 2.825km -118 -2.25 867.9MHz, SF9BW125, 4/5CR
1.177km -124 -9.5 867.9MHz, SF9BW125, 4/5CR
3.243km -108 -10.75 867.9MHz, SF9BW125, 4/5CR
2026-05-07 13:32:41 17.75°C 89.6875% 4 μg/m³ 5 μg/m³ 3.29V v255 52.0796 / 5.11285 6057 ttn.v3 2.825km -120 -3.75 867.7MHz, SF9BW125, 4/5CR
1.177km -123 -6 867.7MHz, SF9BW125, 4/5CR
2026-05-07 12:44:16 18.125°C 96.625% 5 μg/m³ 6 μg/m³ 3.29V v255 52.0796 / 5.11285 6054 ttn.v3 2.825km -119 -5.5 868.1MHz, SF9BW125, 4/5CR
3.243km -109 -10 868.1MHz, SF9BW125, 4/5CR
2026-05-07 12:28:08 15.9375°C 112.625% 1 μg/m³ 1 μg/m³ 3.29V v255 52.0796 / 5.11285 6053 ttn.v3 2.825km -120 -7.5 867.3MHz, SF9BW125, 4/5CR
1.177km -123 -9.2 867.3MHz, SF9BW125, 4/5CR
2026-05-07 12:11:59 16.5625°C 105.625% 2 μg/m³ 3 μg/m³ 3.29V v255 52.0796 / 5.11285 6052 ttn.v3 2.825km -121 -12 868.5MHz, SF9BW125, 4/5CR
2026-05-07 11:55:51 16.5625°C 106.938% 2 μg/m³ 3 μg/m³ 3.29V v255 52.0796 / 5.11285 6051 ttn.v3 2.825km -119 -2.25 867.1MHz, SF9BW125, 4/5CR
1.177km -125 -11.5 867.1MHz, SF9BW125, 4/5CR
3.243km -109 -13.5 867.1MHz, SF9BW125, 4/5CR
2026-05-07 11:23:35 16.375°C 111.5% 2 μg/m³ 2 μg/m³ 3.29V v255 52.0796 / 5.11285 6049 ttn.v3 2.825km -120 -5.5 867.9MHz, SF9BW125, 4/5CR
1.177km -124 -6.2 867.9MHz, SF9BW125, 4/5CR
2026-05-07 11:08:52 16.125°C 115.688% 2 μg/m³ 2 μg/m³ 3.29V v255 52.0796 / 5.11285 6048 ttn.v3 2.825km -119 -6 868.1MHz, SF12BW125, 4/5CR
1.177km -123 -7.8 868.1MHz, SF12BW125, 4/5CR
3.243km -111 -10 868.1MHz, SF12BW125, 4/5CR
- -132 -17 868.1MHz, SF12BW125, 4/5CR
2026-05-07 10:51:25 15.625°C 115.125% 2 μg/m³ 2 μg/m³ 3.29V v255 52.0796 / 5.11279 6047 ttn.v3 2.821km -117 -2 867.7MHz, SF9BW125, 4/5CR
1.173km -124 -13 867.7MHz, SF9BW125, 4/5CR
2026-05-07 10:19:09 14.4375°C -5.625% 3 μg/m³ 4 μg/m³ 3.29V v255 52.0796 / 5.11279 6045 ttn.v3 1.173km -118 -11.2 867.5MHz, SF9BW125, 4/5CR
2026-05-07 09:46:54 13.5625°C 11.125% 2 μg/m³ 2 μg/m³ 3.29V v255 52.0796 / 5.11279 6043 ttn.v3 2.821km -119 -4 867.3MHz, SF9BW125, 4/5CR
1.173km -123 -5 867.3MHz, SF9BW125, 4/5CR
2026-05-07 09:30:47 12.6875°C 13.125% 3 μg/m³ 4 μg/m³ 3.29V v255 52.0796 / 5.11279 6042 ttn.v3 2.821km -118 -3.75 868.1MHz, SF9BW125, 4/5CR
1.173km -124 -7 868.1MHz, SF9BW125, 4/5CR
2026-05-07 09:14:39 12.3125°C 25.375% 2 μg/m³ 3 μg/m³ 3.29V v255 52.0796 / 5.11279 6041 ttn.v3 2.821km -119 -1.75 867.1MHz, SF9BW125, 4/5CR
3.247km -105 -9 867.1MHz, SF9BW125, 4/5CR
2026-05-07 08:58:32 11.75°C 27.625% 1 μg/m³ 2 μg/m³ 3.29V v255 52.0796 / 5.11279 6040 ttn.v3 2.821km -116 -9.5 868.5MHz, SF9BW125, 4/5CR
2026-05-07 08:42:25 11.125°C 55.625% 3 μg/m³ 3 μg/m³ 3.29V v255 52.0796 / 5.11279 6039 ttn.v3 2.821km -117 -2.5 867.9MHz, SF9BW125, 4/5CR
- -117 -3.75 867.9MHz, SF9BW125, 4/5CR
1.173km -124 -6.2 867.9MHz, SF9BW125, 4/5CR
3.247km -111 -11 867.9MHz, SF9BW125, 4/5CR
2026-05-07 08:10:11 10°C 67% 2 μg/m³ 3 μg/m³ 3.29V v255 52.0796 / 5.11279 6037 ttn.v3 2.821km -117 -1.25 867.7MHz, SF9BW125, 4/5CR
2026-05-07 07:54:04 9.5°C 65.6875% 2 μg/m³ 2 μg/m³ 3.29V v255 52.0796 / 5.11279 6036 ttn.v3 2.821km -118 -3 868.1MHz, SF9BW125, 4/5CR
1.173km -124 -7.8 868.1MHz, SF9BW125, 4/5CR
2026-05-07 07:21:51 8.75°C 58.9375% 7 μg/m³ 9 μg/m³ 3.29V v255 52.0796 / 5.11279 6034 ttn.v3 2.821km -117 -8 868.5MHz, SF9BW125, 4/5CR
2026-05-07 07:05:44 8.8125°C 60.5625% 2 μg/m³ 2 μg/m³ 3.29V v255 52.0796 / 5.11279 6033 ttn.v3 - -116 -7 867.3MHz, SF9BW125, 4/5CR
1.173km -122 -7 867.3MHz, SF9BW125, 4/5CR
2.821km -118 -12.75 867.3MHz, SF9BW125, 4/5CR
2026-05-07 06:33:31 8.5625°C 58.75% 2 μg/m³ 2 μg/m³ 3.29V v255 52.0796 / 5.11279 6031 ttn.v3 2.821km -119 -2.25 867.1MHz, SF9BW125, 4/5CR
1.173km -124 -11 867.1MHz, SF9BW125, 4/5CR
2026-05-07 06:17:25 8.5°C 56.9375% 1 μg/m³ 1 μg/m³ 3.29V v255 52.0796 / 5.11279 6030 ttn.v3 2.821km -118 -2.75 868.1MHz, SF9BW125, 4/5CR
2026-05-07 06:01:18 8.3125°C 57.0625% 2 μg/m³ 3 μg/m³ 3.29V v255 52.0796 / 5.11279 6029 ttn.v3 2.821km -117 -1 867.9MHz, SF9BW125, 4/5CR
1.173km -124 -8.2 867.9MHz, SF9BW125, 4/5CR
2026-05-07 05:45:12 8.1875°C 56.5% 9 μg/m³ 13 μg/m³ 3.29V v255 52.0796 / 5.11279 6028 ttn.v3 2.821km -116 -5.25 868.5MHz, SF9BW125, 4/5CR
2026-05-07 05:29:05 8°C 55.25% 1 μg/m³ 1 μg/m³ 3.29V v255 52.0796 / 5.11279 6027 ttn.v3 1.173km -124 -5.5 867.7MHz, SF9BW125, 4/5CR
2026-05-07 04:56:52 7.875°C 60.8125% 2 μg/m³ 2 μg/m³ 3.29V v255 52.0796 / 5.11279 6025 ttn.v3 1.173km -122 -7.5 867.5MHz, SF9BW125, 4/5CR
2026-05-07 04:40:46 7.875°C 66.4375% 3 μg/m³ 4 μg/m³ 3.29V v255 52.0796 / 5.11279 6024 ttn.v3 2.821km -118 -2.25 868.1MHz, SF9BW125, 4/5CR
2026-05-07 04:24:39 8.125°C 70.875% 4 μg/m³ 6 μg/m³ 3.29V v255 52.0796 / 5.11279 6023 ttn.v3 2.821km -119 -3.25 867.3MHz, SF9BW125, 4/5CR
1.173km -123 -7 867.3MHz, SF9BW125, 4/5CR
2026-05-07 04:08:33 8.25°C 72.4375% 2 μg/m³ 3 μg/m³ 3.29V v255 52.0796 / 5.11279 6022 ttn.v3 2.821km -116 -4.5 868.5MHz, SF9BW125, 4/5CR
- -117 -12.75 868.5MHz, SF9BW125, 4/5CR
2026-05-07 03:52:26 8.4375°C 72.1875% 2 μg/m³ 2 μg/m³ 3.29V v255 52.0796 / 5.11279 6021 ttn.v3 2.821km -119 -2.75 867.1MHz, SF9BW125, 4/5CR
1.173km -125 -12.5 867.1MHz, SF9BW125, 4/5CR
2026-05-07 03:20:13 8.875°C 67.5% 1 μg/m³ 1 μg/m³ 3.29V v255 52.0796 / 5.11279 6019 ttn.v3 2.821km -117 -2 867.9MHz, SF9BW125, 4/5CR
- -116 -3 867.9MHz, SF9BW125, 4/5CR
3.247km -109 -6.5 867.9MHz, SF9BW125, 4/5CR
1.173km -124 -7.5 867.9MHz, SF9BW125, 4/5CR
2026-05-07 03:04:06 9.0625°C 65.125% 2 μg/m³ 3 μg/m³ 3.29V v255 52.0796 / 5.11279 6018 ttn.v3 1.173km -124 -11.2 868.1MHz, SF9BW125, 4/5CR
2026-05-07 02:47:59 9.1875°C 64.3125% 4 μg/m³ 6 μg/m³ 3.29V v255 52.0796 / 5.11279 6017 ttn.v3 2.821km -117 0 867.7MHz, SF9BW125, 4/5CR
1.173km -124 -7 867.7MHz, SF9BW125, 4/5CR
3.247km -105 -13.25 867.7MHz, SF9BW125, 4/5CR
2026-05-07 02:31:53 9.25°C 62.875% 1 μg/m³ 2 μg/m³ 3.29V v255 52.0796 / 5.11279 6016 ttn.v3 2.821km -116 -6.25 868.5MHz, SF9BW125, 4/5CR
2026-05-07 02:15:46 9.3125°C 58.1875% 5 μg/m³ 7 μg/m³ 3.29V v255 52.0796 / 5.11279 6015 ttn.v3 2.821km -116 -8 867.5MHz, SF9BW125, 4/5CR
1.173km -123 -10.2 867.5MHz, SF9BW125, 4/5CR
2026-05-07 01:43:33 9.875°C 40.6875% 3 μg/m³ 3 μg/m³ 3.29V v255 52.0796 / 5.11279 6013 ttn.v3 2.821km -119 -2.25 867.3MHz, SF9BW125, 4/5CR
- -114 -5.25 867.3MHz, SF9BW125, 4/5CR
1.173km -124 -14.2 867.3MHz, SF9BW125, 4/5CR
2026-05-07 01:27:26 10.3125°C 37% 2 μg/m³ 2 μg/m³ 3.29V v255 52.0796 / 5.11279 6012 ttn.v3 2.821km -116 -1.25 868.1MHz, SF9BW125, 4/5CR
1.173km -125 -10.8 868.1MHz, SF9BW125, 4/5CR
2026-05-07 01:11:19 10.625°C 28.25% 3 μg/m³ 4 μg/m³ 3.29V v255 52.0796 / 5.11279 6011 ttn.v3 2.821km -120 -3.5 867.1MHz, SF9BW125, 4/5CR
2026-05-07 00:55:12 10.875°C 25.5625% 3 μg/m³ 4 μg/m³ 3.29V v255 52.0796 / 5.11279 6010 ttn.v3 2.821km -116 -6.75 868.5MHz, SF9BW125, 4/5CR
2026-05-07 00:39:05 11.125°C 21.1875% 7 μg/m³ 8 μg/m³ 3.29V v255 52.0796 / 5.11279 6009 ttn.v3 2.821km -117 -1.25 867.9MHz, SF9BW125, 4/5CR
1.173km -124 -9.5 867.9MHz, SF9BW125, 4/5CR
2026-05-07 00:22:58 11.25°C 17% 4 μg/m³ 4 μg/m³ 3.29V v255 52.0796 / 5.11279 6008 ttn.v3 2.821km -117 -11.25 868.3MHz, SF9BW125, 4/5CR
2026-05-07 00:06:51 11.4375°C 13.875% 3 μg/m³ 3 μg/m³ 3.29V v255 52.0796 / 5.11279 6007 ttn.v3 2.821km -116 -0.5 867.7MHz, SF9BW125, 4/5CR
1.173km -124 -6.5 867.7MHz, SF9BW125, 4/5CR
- -121 -7.5 867.7MHz, SF9BW125, 4/5CR
2026-05-06 23:50:44 11.4375°C 10.9375% 3 μg/m³ 3 μg/m³ 3.29V v255 52.0796 / 5.11279 6006 ttn.v3 1.173km -124 -11 868.1MHz, SF9BW125, 4/5CR
2026-05-06 23:34:37 11.5625°C 9.5% 3 μg/m³ 3 μg/m³ 3.29V v255 52.0796 / 5.11279 6005 ttn.v3 2.821km -117 -6.5 867.5MHz, SF9BW125, 4/5CR
1.173km -123 -13 867.5MHz, SF9BW125, 4/5CR
2026-05-06 23:02:22 11.875°C 8.9375% 7 μg/m³ 10 μg/m³ 3.29V v255 52.0796 / 5.11279 6003 ttn.v3 2.821km -119 -3 867.3MHz, SF9BW125, 4/5CR
2026-05-06 22:46:15 11.9375°C 10.25% 2 μg/m³ 2 μg/m³ 3.29V v255 52.0796 / 5.11279 6002 ttn.v3 2.821km -117 -12.75 868.3MHz, SF9BW125, 4/5CR
2026-05-06 22:30:08 12.125°C 9.75% 5 μg/m³ 6 μg/m³ 3.29V v255 52.0796 / 5.11279 6001 ttn.v3 2.821km -120 -2.75 867.1MHz, SF9BW125, 4/5CR
- -121 -6.25 867.1MHz, SF9BW125, 4/5CR
3.247km -109 -7 867.1MHz, SF9BW125, 4/5CR
- -129 -13 867.1MHz, SF9BW125, 4/5CR
1.173km -125 -16.2 867.1MHz, SF9BW125, 4/5CR
2026-05-06 22:14:01 12.3125°C 12.5625% 4 μg/m³ 5 μg/m³ 3.29V v255 52.0796 / 5.11279 6000 ttn.v3 2.821km -117 -3 868.1MHz, SF9BW125, 4/5CR
3.247km -103 -10.5 868.1MHz, SF9BW125, 4/5CR
1.173km -124 -10.8 868.1MHz, SF9BW125, 4/5CR
2026-05-06 21:57:53 12.5625°C 14.8125% 4 μg/m³ 5 μg/m³ 3.29V v255 52.0796 / 5.11279 5999 ttn.v3 2.821km -116 0.25 867.9MHz, SF9BW125, 4/5CR
3.247km -110 -7.25 867.9MHz, SF9BW125, 4/5CR
2026-05-06 21:41:46 12.6875°C 6.9375% 3 μg/m³ 4 μg/m³ 3.29V v255 52.0796 / 5.11279 5998 ttn.v3 2.821km -116 -9 868.5MHz, SF9BW125, 4/5CR
2026-05-06 21:25:39 12.8125°C -5% 3 μg/m³ 4 μg/m³ 3.29V v255 52.0796 / 5.11279 5997 ttn.v3 2.821km -116 0 867.7MHz, SF9BW125, 4/5CR
3.247km -104 -6.5 867.7MHz, SF9BW125, 4/5CR
2026-05-06 20:37:17 12.9375°C 110.688% 2 μg/m³ 2 μg/m³ 3.29V v255 52.0796 / 5.11279 5994 ttn.v3 2.821km -120 -4.75 868.1MHz, SF9BW125, 4/5CR
1.173km -123 -9 868.1MHz, SF9BW125, 4/5CR
2026-05-06 20:21:09 13°C 110.562% 5 μg/m³ 5 μg/m³ 3.29V v255 52.0796 / 5.11279 5993 ttn.v3 2.821km -118 -2.25 867.3MHz, SF9BW125, 4/5CR
1.173km -124 -10.5 867.3MHz, SF9BW125, 4/5CR
2026-05-06 20:05:02 13.1875°C 107.25% 2 μg/m³ 2 μg/m³ 3.29V v255 52.0796 / 5.11279 5992 ttn.v3 2.821km -117 -6.75 868.5MHz, SF9BW125, 4/5CR
2026-05-06 19:48:54 13.4375°C 104.125% 3 μg/m³ 4 μg/m³ 3.29V v255 52.0796 / 5.11279 5991 ttn.v3 2.821km -121 -4.5 867.1MHz, SF9BW125, 4/5CR
1.173km -124 -8.2 867.1MHz, SF9BW125, 4/5CR
2026-05-06 19:16:40 13.75°C 101.375% 3 μg/m³ 3 μg/m³ 3.29V v255 52.0796 / 5.11279 5989 ttn.v3 2.821km -118 -3.25 867.9MHz, SF9BW125, 4/5CR
- -116 -5.5 867.9MHz, SF9BW125, 4/5CR
2026-05-06 19:00:32 13.875°C 99.625% 2 μg/m³ 2 μg/m³ 3.29V v255 52.0796 / 5.11279 5988 ttn.v3 2.821km -119 -3 868.1MHz, SF9BW125, 4/5CR
1.173km -124 -12.8 868.1MHz, SF9BW125, 4/5CR
2026-05-06 18:44:24 14°C 97.3125% 3 μg/m³ 3 μg/m³ 3.29V v255 52.0796 / 5.11279 5987 ttn.v3 2.821km -117 -1.25 867.7MHz, SF9BW125, 4/5CR
2026-05-06 17:39:54 14.25°C 96.25% 2 μg/m³ 2 μg/m³ 3.29V v255 52.0796 / 5.11279 5983 ttn.v3 2.821km -119 -3.5 867.3MHz, SF9BW125, 4/5CR
2026-05-06 17:23:46 14.4375°C 96.0625% 3 μg/m³ 4 μg/m³ 3.29V v255 52.0796 / 5.11279 5982 ttn.v3 2.821km -119 -7.75 868.1MHz, SF9BW125, 4/5CR
3.247km -107 -11.25 868.1MHz, SF9BW125, 4/5CR
1.173km -124 -12.2 868.1MHz, SF9BW125, 4/5CR
2026-05-06 17:07:39 14.1875°C 102.5% 4 μg/m³ 4 μg/m³ 3.29V v255 52.0796 / 5.11279 5981 ttn.v3 2.821km -120 -3 867.1MHz, SF9BW125, 4/5CR
2026-05-06 16:51:31 14°C 103.312% 2 μg/m³ 2 μg/m³ 3.29V v255 52.0796 / 5.11279 5980 ttn.v3 2.821km -116 -9 868.5MHz, SF9BW125, 4/5CR
2026-05-06 16:35:24 13.6875°C 101.375% 2 μg/m³ 2 μg/m³ 3.29V v255 52.0796 / 5.11279 5979 ttn.v3 2.821km -120 -5.25 867.9MHz, SF9BW125, 4/5CR
1.173km -125 -14.5 867.9MHz, SF9BW125, 4/5CR
2026-05-06 16:19:16 13.625°C 101.688% 6 μg/m³ 9 μg/m³ 3.29V v255 52.0796 / 5.11279 5978 ttn.v3 2.821km -116 -14.5 868.3MHz, SF9BW125, 4/5CR
2026-05-06 16:03:09 13.8125°C 100.5% 6 μg/m³ 9 μg/m³ 3.29V v255 52.0796 / 5.11279 5977 ttn.v3 2.821km -116 -2 867.7MHz, SF9BW125, 4/5CR
2026-05-06 15:30:54 13.75°C 99.4375% 1 μg/m³ 1 μg/m³ 3.29V v255 52.0796 / 5.11279 5975 ttn.v3 1.173km -120 -11.5 867.5MHz, SF9BW125, 4/5CR
2026-05-06 14:58:38 14.5°C 92% 1 μg/m³ 1 μg/m³ 3.29V v255 52.0796 / 5.11279 5973 ttn.v3 1.173km -123 -11.2 867.3MHz, SF9BW125, 4/5CR
2026-05-06 14:26:23 14.4375°C 89.9375% 3 μg/m³ 4 μg/m³ 3.29V v255 52.0796 / 5.11279 5971 ttn.v3 2.821km -119 -3.5 867.1MHz, SF9BW125, 4/5CR
1.173km -124 -9 867.1MHz, SF9BW125, 4/5CR
2026-05-06 14:10:15 14.75°C 90.5% 2 μg/m³ 3 μg/m³ 3.29V v255 52.0796 / 5.11279 5970 ttn.v3 2.821km -120 -7.25 868.1MHz, SF9BW125, 4/5CR
2026-05-06 13:54:07 14.875°C 96.4375% 2 μg/m³ 2 μg/m³ 3.29V v255 52.0796 / 5.11279 5969 ttn.v3 2.821km -118 -2.5 867.9MHz, SF9BW125, 4/5CR
3.247km -110 -9.5 867.9MHz, SF9BW125, 4/5CR
2026-05-06 13:38:00 15°C 108.562% 8 μg/m³ 8 μg/m³ 3.29V v255 52.0796 / 5.11279 5968 ttn.v3 2.821km -117 -9.75 868.5MHz, SF9BW125, 4/5CR
2026-05-06 13:21:52 14.5°C 104.438% 4 μg/m³ 4 μg/m³ 3.29V v255 52.0796 / 5.11279 5967 ttn.v3 2.821km -116 -1.75 867.7MHz, SF9BW125, 4/5CR
2026-05-06 12:17:21 14.5625°C 111.062% 6 μg/m³ 6 μg/m³ 3.29V v255 52.0796 / 5.11279 5963 ttn.v3 1.173km -123 -8.8 867.3MHz, SF9BW125, 4/5CR
2026-05-06 11:45:05 15.25°C 106.312% 4 μg/m³ 4 μg/m³ 3.29V v255 52.0796 / 5.11279 5961 ttn.v3 2.821km -122 -4.75 867.1MHz, SF9BW125, 4/5CR
1.173km -124 -5.5 867.1MHz, SF9BW125, 4/5CR
2026-05-06 11:12:50 14.4375°C 115.875% 5 μg/m³ 6 μg/m³ 3.29V v255 52.0796 / 5.11279 5959 ttn.v3 1.173km -124 -10 867.9MHz, SF9BW125, 4/5CR
2026-05-06 10:56:42 14.625°C 115.75% 7 μg/m³ 7 μg/m³ 3.29V v255 52.0796 / 5.11279 5958 ttn.v3 2.821km -122 -7.25 868.1MHz, SF9BW125, 4/5CR
1.173km -124 -11.2 868.1MHz, SF9BW125, 4/5CR
2026-05-06 10:40:34 14.25°C -1.4375% 3 μg/m³ 3 μg/m³ 3.29V v255 52.0796 / 5.11279 5957 ttn.v3 2.821km -119 -3.75 867.7MHz, SF9BW125, 4/5CR
1.173km -124 -6 867.7MHz, SF9BW125, 4/5CR
2026-05-06 10:24:27 13.375°C 15.0625% 6 μg/m³ 6 μg/m³ 3.29V v255 52.0796 / 5.11279 5956 ttn.v3 - -112 -11.5 868.5MHz, SF9BW125, 4/5CR
2026-05-06 10:08:19 13.125°C 7.5% 6 μg/m³ 6 μg/m³ 3.29V v255 52.0796 / 5.11279 5955 ttn.v3 1.173km -122 -7.8 867.5MHz, SF9BW125, 4/5CR
2.821km -119 -12.25 867.5MHz, SF9BW125, 4/5CR
2026-05-06 09:36:05 13°C 13.8125% 5 μg/m³ 5 μg/m³ 3.29V v255 52.0796 / 5.11279 5953 ttn.v3 - -118 -6 867.3MHz, SF9BW125, 4/5CR
2.821km -117 -8 867.3MHz, SF9BW125, 4/5CR
3.247km -104 -8.5 867.3MHz, SF9BW125, 4/5CR
2026-05-06 09:21:40 12.8125°C 21.1875% 3 μg/m³ 3 μg/m³ 3.29V v255 52.0796 / 5.11279 5952 ttn.v3 1.173km -123 -8.2 868.1MHz, SF12BW125, 4/5CR
2026-05-06 09:03:57 12.6875°C 41.9375% 3 μg/m³ 3 μg/m³ 3.29V v255 52.0797 / 5.11285 5951 ttn.v3 2.83km -119 -6 867.1MHz, SF9BW125, 4/5CR
1.179km -124 -7.2 867.1MHz, SF9BW125, 4/5CR
2026-05-06 08:47:50 12.4375°C 58.375% 6 μg/m³ 6 μg/m³ 3.29V v255 52.0797 / 5.11285 5950 ttn.v3 2.83km -118 -11 868.5MHz, SF9BW125, 4/5CR
2026-05-06 08:31:43 11.8125°C 60.3125% 5 μg/m³ 5 μg/m³ 3.29V v255 52.0797 / 5.11285 5949 ttn.v3 2.83km -117 -0.25 867.9MHz, SF9BW125, 4/5CR
1.179km -123 -3 867.9MHz, SF9BW125, 4/5CR
- -115 -6 867.9MHz, SF9BW125, 4/5CR
2026-05-06 07:59:29 11.375°C 59.125% 3 μg/m³ 4 μg/m³ 3.29V v255 52.0797 / 5.11285 5947 ttn.v3 2.83km -117 -1.25 867.7MHz, SF9BW125, 4/5CR
1.179km -124 -8 867.7MHz, SF9BW125, 4/5CR
2026-05-06 07:43:22 11.125°C 58.9375% 3 μg/m³ 3 μg/m³ 3.29V v255 52.0797 / 5.11285 5946 ttn.v3 1.179km -124 -11.8 868.1MHz, SF9BW125, 4/5CR
2026-05-06 07:27:15 10.9375°C 58.75% 7 μg/m³ 9 μg/m³ 3.29V v255 52.0797 / 5.11285 5945 ttn.v3 2.83km -117 -8 867.5MHz, SF9BW125, 4/5CR
1.179km -122 -13.2 867.5MHz, SF9BW125, 4/5CR
2026-05-06 07:11:08 10.75°C 58.5625% 5 μg/m³ 7 μg/m³ 3.29V v255 52.0797 / 5.11285 5944 ttn.v3 2.83km -117 -15.25 868.5MHz, SF9BW125, 4/5CR
2026-05-06 06:55:01 10.625°C 58.1875% 8 μg/m³ 9 μg/m³ 3.29V v255 52.0797 / 5.11285 5943 ttn.v3 2.83km -119 -2.5 867.3MHz, SF9BW125, 4/5CR
1.179km -123 -5.2 867.3MHz, SF9BW125, 4/5CR
2026-05-06 06:22:47 10.375°C 59.4375% 5 μg/m³ 5 μg/m³ 3.29V v255 52.0797 / 5.11285 5941 ttn.v3 2.83km -118 -1.5 867.1MHz, SF9BW125, 4/5CR
1.179km -124 -5.2 867.1MHz, SF9BW125, 4/5CR
2026-05-06 06:06:40 10.375°C 61.3125% 6 μg/m³ 7 μg/m³ 3.29V v255 52.0797 / 5.11285 5940 ttn.v3 2.83km -119 -5.25 868.1MHz, SF9BW125, 4/5CR
1.179km -122 -9 868.1MHz, SF9BW125, 4/5CR
2026-05-06 05:50:34 10.3125°C 61.625% 8 μg/m³ 8 μg/m³ 3.29V v255 52.0797 / 5.11285 5939 ttn.v3 2.83km -117 -0.5 867.9MHz, SF9BW125, 4/5CR
- -118 -4.25 867.9MHz, SF9BW125, 4/5CR
1.179km -125 -9.5 867.9MHz, SF9BW125, 4/5CR
2026-05-06 05:34:27 10.25°C 61.625% 7 μg/m³ 8 μg/m³ 3.29V v255 52.0797 / 5.11285 5938 ttn.v3 2.83km -117 -10.75 868.5MHz, SF9BW125, 4/5CR
2026-05-06 05:18:20 10.25°C 61.5625% 7 μg/m³ 8 μg/m³ 3.29V v255 52.0797 / 5.11285 5937 ttn.v3 2.83km -116 -3.75 867.7MHz, SF9BW125, 4/5CR
1.179km -124 -15 867.7MHz, SF9BW125, 4/5CR
2026-05-06 04:46:06 10.125°C 61.6875% 8 μg/m³ 8 μg/m³ 3.29V v255 52.0797 / 5.11285 5935 ttn.v3 2.83km -118 -7.75 867.5MHz, SF9BW125, 4/5CR
1.179km -122 -12.5 867.5MHz, SF9BW125, 4/5CR
2026-05-06 04:29:59 10.125°C 61.5625% 9 μg/m³ 10 μg/m³ 3.29V v255 52.0797 / 5.11285 5934 ttn.v3 1.179km -123 -8 868.1MHz, SF9BW125, 4/5CR
2026-05-06 04:13:52 10.1875°C 61.125% 5 μg/m³ 5 μg/m³ 3.29V v255 52.0797 / 5.11285 5933 ttn.v3 2.83km -118 -2 867.3MHz, SF9BW125, 4/5CR
1.179km -123 -6 867.3MHz, SF9BW125, 4/5CR
2026-05-06 03:57:45 10.3125°C 60.125% 9 μg/m³ 10 μg/m³ 3.29V v255 52.0797 / 5.11285 5932 ttn.v3 2.83km -117 -13 868.5MHz, SF9BW125, 4/5CR
2026-05-06 03:41:39 10.4375°C 57.75% 8 μg/m³ 10 μg/m³ 3.29V v255 52.0797 / 5.11285 5931 ttn.v3 2.83km -119 -3 867.1MHz, SF9BW125, 4/5CR
1.179km -123 -4.8 867.1MHz, SF9BW125, 4/5CR
- -123 -7.25 867.1MHz, SF9BW125, 4/5CR
3.237km -108 -11 867.1MHz, SF9BW125, 4/5CR
2026-05-06 03:09:25 10.625°C 57.5% 11 μg/m³ 13 μg/m³ 3.29V v255 52.0797 / 5.11285 5929 ttn.v3 1.179km -124 -5 867.9MHz, SF9BW125, 4/5CR
2026-05-06 02:53:18 10.5625°C 57.625% 9 μg/m³ 9 μg/m³ 3.29V v255 52.0797 / 5.11285 5928 ttn.v3 2.83km -118 -4.75 868.1MHz, SF9BW125, 4/5CR
1.179km -122 -5.8 868.1MHz, SF9BW125, 4/5CR
- -122 -13.75 868.1MHz, SF9BW125, 4/5CR
2026-05-06 02:37:11 10.5°C 58.1875% 11 μg/m³ 13 μg/m³ 3.29V v255 52.0797 / 5.11285 5927 ttn.v3 2.83km -117 -0.75 867.7MHz, SF9BW125, 4/5CR
3.237km -107 -6.75 867.7MHz, SF9BW125, 4/5CR
1.179km -124 -11.2 867.7MHz, SF9BW125, 4/5CR
2026-05-06 02:21:04 10.5°C 60% 7 μg/m³ 7 μg/m³ 3.29V v255 52.0797 / 5.11285 5926 ttn.v3 2.83km -117 -11.5 868.5MHz, SF9BW125, 4/5CR
2026-05-06 02:04:57 10.4375°C 60.125% 8 μg/m³ 9 μg/m³ 3.29V v255 52.0797 / 5.11285 5925 ttn.v3 1.179km -123 -8 867.5MHz, SF9BW125, 4/5CR
2026-05-06 01:48:50 10.5°C 60.0625% 10 μg/m³ 11 μg/m³ 3.29V v255 52.0797 / 5.11285 5924 ttn.v3 2.83km -117 -8.25 868.3MHz, SF9BW125, 4/5CR
2026-05-06 01:32:43 10.5°C 59.625% 17 μg/m³ 20 μg/m³ 3.29V v255 52.0797 / 5.11285 5923 ttn.v3 2.83km -118 -1.75 867.3MHz, SF9BW125, 4/5CR
1.179km -122 -4 867.3MHz, SF9BW125, 4/5CR
- -122 -12.25 867.3MHz, SF9BW125, 4/5CR
2026-05-06 01:16:36 10.4375°C 59.9375% 10 μg/m³ 11 μg/m³ 3.29V v255 52.0797 / 5.11285 5922 ttn.v3 2.83km -117 -3.75 868.1MHz, SF9BW125, 4/5CR
1.179km -123 -4.5 868.1MHz, SF9BW125, 4/5CR
2026-05-06 01:00:29 10.375°C 59.5625% 11 μg/m³ 12 μg/m³ 3.29V v255 52.0797 / 5.11285 5921 ttn.v3 2.83km -118 -1.5 867.1MHz, SF9BW125, 4/5CR
1.179km -123 -2.8 867.1MHz, SF9BW125, 4/5CR
2026-05-06 00:44:23 10.375°C 58.1875% 9 μg/m³ 9 μg/m³ 3.29V v255 52.0797 / 5.11285 5920 ttn.v3 2.83km -117 -7.75 868.5MHz, SF9BW125, 4/5CR
- -117 -13 868.5MHz, SF9BW125, 4/5CR
2026-05-06 00:28:16 10.4375°C 54.1875% 7 μg/m³ 7 μg/m³ 3.29V v255 52.0797 / 5.11285 5919 ttn.v3 2.83km -117 -3.5 867.9MHz, SF9BW125, 4/5CR
- -116 -3.75 867.9MHz, SF9BW125, 4/5CR
1.179km -124 -6 867.9MHz, SF9BW125, 4/5CR
3.237km -109 -8.25 867.9MHz, SF9BW125, 4/5CR
2026-05-06 00:12:09 10.375°C 48.5% 5 μg/m³ 5 μg/m³ 3.29V v255 52.0797 / 5.11285 5918 ttn.v3 2.83km -117 -9.25 868.3MHz, SF9BW125, 4/5CR
2026-05-05 23:56:02 10.1875°C 44.1875% 8 μg/m³ 8 μg/m³ 3.29V v255 52.0797 / 5.11285 5917 ttn.v3 2.83km -116 0 867.7MHz, SF9BW125, 4/5CR
3.237km -109 -10.75 867.7MHz, SF9BW125, 4/5CR
2026-05-05 23:39:55 10.25°C 41.3125% 6 μg/m³ 6 μg/m³ 3.29V v255 52.0797 / 5.11285 5916 ttn.v3 2.83km -117 -5 868.1MHz, SF9BW125, 4/5CR
1.179km -123 -6.8 868.1MHz, SF9BW125, 4/5CR
2026-05-05 23:23:48 10.375°C 41.4375% 6 μg/m³ 6 μg/m³ 3.29V v255 52.0797 / 5.11285 5915 ttn.v3 1.179km -122 -9.8 867.5MHz, SF9BW125, 4/5CR
2026-05-05 23:07:41 10.5625°C 36.0625% 6 μg/m³ 7 μg/m³ 3.29V v255 52.0797 / 5.11285 5914 ttn.v3 2.83km -116 -6.75 868.5MHz, SF9BW125, 4/5CR
- -116 -10.25 868.5MHz, SF9BW125, 4/5CR
2026-05-05 22:51:34 10.875°C 30.3125% 9 μg/m³ 9 μg/m³ 3.29V v255 52.0797 / 5.11285 5913 ttn.v3 1.179km -123 -5 867.3MHz, SF9BW125, 4/5CR
- -115 -8.5 867.3MHz, SF9BW125, 4/5CR
2.83km -118 -10.25 867.3MHz, SF9BW125, 4/5CR
2026-05-05 22:19:20 11.5°C 27.9375% 8 μg/m³ 8 μg/m³ 3.29V v255 52.0797 / 5.11285 5911 ttn.v3 2.83km -119 -1.75 867.1MHz, SF9BW125, 4/5CR
1.179km -124 -5.2 867.1MHz, SF9BW125, 4/5CR
2026-05-05 22:03:13 11.6875°C 30.5625% 5 μg/m³ 5 μg/m³ 3.29V v255 52.0797 / 5.11285 5910 ttn.v3 2.83km -119 -7 868.1MHz, SF9BW125, 4/5CR
2026-05-05 21:47:06 11.6875°C 31.0625% 9 μg/m³ 10 μg/m³ 3.29V v255 52.0797 / 5.11285 5909 ttn.v3 2.83km -118 -3 867.9MHz, SF9BW125, 4/5CR
1.179km -125 -14.5 867.9MHz, SF9BW125, 4/5CR
2026-05-05 21:30:59 11.875°C 29.1875% 9 μg/m³ 11 μg/m³ 3.29V v255 52.0797 / 5.11285 5908 ttn.v3 2.83km -118 -12.75 868.5MHz, SF9BW125, 4/5CR
- -119 -14.5 868.5MHz, SF9BW125, 4/5CR
2026-05-05 21:14:52 11.9375°C 25.125% 8 μg/m³ 8 μg/m³ 3.29V v255 52.0797 / 5.11285 5907 ttn.v3 2.83km -117 -1.75 867.7MHz, SF9BW125, 4/5CR
2026-05-05 20:42:38 12.4375°C 21.1875% 12 μg/m³ 15 μg/m³ 3.29V v255 52.0797 / 5.11285 5905 ttn.v3 1.179km -122 -15 867.5MHz, SF9BW125, 4/5CR
2026-05-05 20:26:30 12.6875°C 19.4375% 7 μg/m³ 7 μg/m³ 3.29V v255 52.0797 / 5.11285 5904 ttn.v3 2.83km -118 -4 868.1MHz, SF9BW125, 4/5CR
1.179km -124 -9.2 868.1MHz, SF9BW125, 4/5CR
2026-05-05 20:10:23 12.875°C 12.9375% 9 μg/m³ 11 μg/m³ 3.29V v255 52.0797 / 5.11285 5903 ttn.v3 2.83km -118 -4 867.3MHz, SF9BW125, 4/5CR
1.179km -124 -8.8 867.3MHz, SF9BW125, 4/5CR
- -116 -13.25 867.3MHz, SF9BW125, 4/5CR
2026-05-05 19:54:16 13.25°C 12.5% 12 μg/m³ 12 μg/m³ 3.29V v255 52.0797 / 5.11285 5902 ttn.v3 2.83km -118 -12.25 868.5MHz, SF9BW125, 4/5CR
2026-05-05 19:38:08 13.625°C 7.9375% 10 μg/m³ 10 μg/m³ 3.29V v255 52.0797 / 5.11285 5901 ttn.v3 2.83km -120 -4.25 867.1MHz, SF9BW125, 4/5CR
1.179km -124 -7 867.1MHz, SF9BW125, 4/5CR
2026-05-05 19:05:53 13.9375°C 2.0625% 7 μg/m³ 7 μg/m³ 3.29V v255 52.0797 / 5.11285 5899 ttn.v3 2.83km -118 -3 867.9MHz, SF9BW125, 4/5CR
- -118 -4 867.9MHz, SF9BW125, 4/5CR
3.237km -111 -8.25 867.9MHz, SF9BW125, 4/5CR
2026-05-05 18:49:46 14.3125°C -0.4375% 11 μg/m³ 11 μg/m³ 3.29V v255 52.0797 / 5.11285 5898 ttn.v3 1.179km -124 -12.5 868.1MHz, SF9BW125, 4/5CR
2026-05-05 18:33:38 14.5625°C -3.5625% 8 μg/m³ 8 μg/m³ 3.29V v255 52.0797 / 5.11285 5897 ttn.v3 2.83km -118 -2 867.7MHz, SF9BW125, 4/5CR
2026-05-05 18:17:30 14.875°C -5.25% 8 μg/m³ 8 μg/m³ 3.29V v255 52.0797 / 5.11285 5896 ttn.v3 - -117 -14.25 868.5MHz, SF9BW125, 4/5CR
2026-05-05 17:29:07 15.375°C 117.25% 12 μg/m³ 12 μg/m³ 3.29V v255 52.0797 / 5.11285 5893 ttn.v3 2.83km -129 -14.5 867.3MHz, SF9BW125, 4/5CR
2026-05-05 17:12:59 15.6875°C 115.25% 10 μg/m³ 11 μg/m³ 3.29V v255 52.0797 / 5.11285 5892 ttn.v3 2.83km -126 -13.5 868.1MHz, SF9BW125, 4/5CR
2026-05-05 16:56:51 15.8125°C 116.125% 11 μg/m³ 11 μg/m³ 3.29V v255 52.0797 / 5.11285 5891 ttn.v3 1.179km -124 -6.5 867.1MHz, SF9BW125, 4/5CR
2026-05-05 16:24:35 15.5625°C 115.188% 12 μg/m³ 12 μg/m³ 3.29V v255 52.0797 / 5.11285 5889 ttn.v3 3.237km -107 -5 867.9MHz, SF9BW125, 4/5CR
- -123 -10.5 867.9MHz, SF9BW125, 4/5CR
2.83km -128 -12.5 867.9MHz, SF9BW125, 4/5CR
1.179km -125 -14 867.9MHz, SF9BW125, 4/5CR
2026-05-05 15:52:19 16.4375°C 114.25% 11 μg/m³ 11 μg/m³ 3.29V v255 52.0797 / 5.11285 5887 ttn.v3 - -121 -5.5 867.7MHz, SF9BW125, 4/5CR
2.83km -124 -8 867.7MHz, SF9BW125, 4/5CR
2026-05-05 15:36:11 16.5625°C 112.938% 10 μg/m³ 11 μg/m³ 3.29V v255 52.0797 / 5.11285 5886 ttn.v3 1.179km -124 -13.2 868.1MHz, SF9BW125, 4/5CR
2026-05-05 14:47:47 15.25°C 12.8125% 11 μg/m³ 11 μg/m³ 3.29V v255 52.0797 / 5.11285 5883 ttn.v3 1.179km -122 -9.8 867.3MHz, SF9BW125, 4/5CR
2026-05-05 14:15:31 14.5625°C 23.1875% 13 μg/m³ 14 μg/m³ 3.29V v255 52.0797 / 5.11285 5881 ttn.v3 2.83km -124 -8 867.1MHz, SF9BW125, 4/5CR
- -121 -10 867.1MHz, SF9BW125, 4/5CR
1.179km -124 -12 867.1MHz, SF9BW125, 4/5CR
2026-05-05 13:59:24 13.8125°C 43.9375% 16 μg/m³ 18 μg/m³ 3.29V v255 52.0797 / 5.11285 5880 ttn.v3 2.83km -118 -3.5 868.1MHz, SF9BW125, 4/5CR
1.179km -124 -10.5 868.1MHz, SF9BW125, 4/5CR
2026-05-05 13:43:16 12.75°C 54.25% 13 μg/m³ 13 μg/m³ 3.29V v255 52.0797 / 5.11285 5879 ttn.v3 2.83km -118 -2.25 867.9MHz, SF9BW125, 4/5CR
- -116 -2.25 867.9MHz, SF9BW125, 4/5CR
3.237km -111 -7.25 867.9MHz, SF9BW125, 4/5CR
1.179km -124 -8.2 867.9MHz, SF9BW125, 4/5CR
2026-05-05 13:27:09 12.5625°C 55.1875% 12 μg/m³ 13 μg/m³ 3.29V v255 52.0797 / 5.11285 5878 ttn.v3 2.83km -119 -11 868.5MHz, SF9BW125, 4/5CR
2026-05-05 13:11:02 12.375°C 55.1875% 15 μg/m³ 15 μg/m³ 3.29V v255 52.0797 / 5.11285 5877 ttn.v3 1.179km -123 -3.5 867.7MHz, SF9BW125, 4/5CR
2.83km -118 -4.75 867.7MHz, SF9BW125, 4/5CR
3.237km -108 -11.25 867.7MHz, SF9BW125, 4/5CR
2026-05-05 12:38:47 12.4375°C 54.125% 13 μg/m³ 14 μg/m³ 3.29V v255 52.0797 / 5.11285 5875 ttn.v3 2.83km -118 -11.5 867.5MHz, SF9BW125, 4/5CR
2026-05-05 12:22:40 11.9375°C 52.6875% 12 μg/m³ 12 μg/m³ 3.29V v255 52.0797 / 5.11285 5874 ttn.v3 1.179km -123 -11.8 868.1MHz, SF9BW125, 4/5CR
2026-05-05 12:06:33 12.0625°C 53.0625% 13 μg/m³ 13 μg/m³ 3.29V v255 52.0797 / 5.11285 5873 ttn.v3 2.83km -120 -5.25 867.3MHz, SF9BW125, 4/5CR
- -117 -5.75 867.3MHz, SF9BW125, 4/5CR
2026-05-05 11:50:26 11.875°C 52.6875% 9 μg/m³ 10 μg/m³ 3.29V v255 52.0797 / 5.11285 5872 ttn.v3 1.179km -116 -16 868.5MHz, SF9BW125, 4/5CR
2026-05-05 11:34:19 11.9375°C 52.875% 10 μg/m³ 11 μg/m³ 3.29V v255 52.0797 / 5.11285 5871 ttn.v3 2.83km -118 -2.25 867.1MHz, SF9BW125, 4/5CR
1.179km -125 -13 867.1MHz, SF9BW125, 4/5CR
2026-05-05 11:02:04 11.75°C 50.9375% 9 μg/m³ 10 μg/m³ 3.29V v255 52.0797 / 5.11285 5869 ttn.v3 2.83km -118 -2 867.9MHz, SF9BW125, 4/5CR
1.179km -124 -7.5 867.9MHz, SF9BW125, 4/5CR
2026-05-05 10:45:57 11.375°C 50.0625% 14 μg/m³ 17 μg/m³ 3.29V v255 52.0797 / 5.11285 5868 ttn.v3 2.83km -119 -5.75 868.1MHz, SF9BW125, 4/5CR
1.179km -123 -10.2 868.1MHz, SF9BW125, 4/5CR
2026-05-05 10:29:50 11.625°C 49.875% 9 μg/m³ 9 μg/m³ 3.29V v255 52.0797 / 5.11285 5867 ttn.v3 2.83km -117 -3 867.7MHz, SF9BW125, 4/5CR
1.179km -122 -6 867.7MHz, SF9BW125, 4/5CR
- -120 -13.75 867.7MHz, SF9BW125, 4/5CR
2026-05-05 10:13:43 11.5°C 45.3125% 11 μg/m³ 12 μg/m³ 3.29V v255 52.0797 / 5.11285 5866 ttn.v3 2.83km -117 -10.5 868.5MHz, SF9BW125, 4/5CR
2026-05-05 09:57:36 11.0625°C 39.4375% 10 μg/m³ 11 μg/m³ 3.29V v255 52.0797 / 5.11285 5865 ttn.v3 1.179km -121 -10.5 867.5MHz, SF9BW125, 4/5CR
2.83km -119 -12 867.5MHz, SF9BW125, 4/5CR
2026-05-05 09:25:22 10.625°C 30.375% 13 μg/m³ 14 μg/m³ 3.29V v255 52.0797 / 5.11285 5863 ttn.v3 2.83km -118 -3.25 867.3MHz, SF9BW125, 4/5CR
1.179km -122 -4.2 867.3MHz, SF9BW125, 4/5CR
3.237km -103 -8.75 867.3MHz, SF9BW125, 4/5CR
2026-05-05 09:09:15 10.625°C 25.375% 15 μg/m³ 16 μg/m³ 3.29V v255 52.0797 / 5.11285 5862 ttn.v3 2.83km -122 -5.75 868.1MHz, SF9BW125, 4/5CR
1.179km -124 -7 868.1MHz, SF9BW125, 4/5CR
2026-05-05 08:53:08 10.25°C 20% 19 μg/m³ 21 μg/m³ 3.29V v255 52.0797 / 5.11285 5861 ttn.v3 2.83km -118 -2 867.1MHz, SF9BW125, 4/5CR
1.179km -124 -7.5 867.1MHz, SF9BW125, 4/5CR
2026-05-05 08:37:01 10.0625°C 12.625% 14 μg/m³ 15 μg/m³ 3.29V v255 52.0797 / 5.11285 5860 ttn.v3 - -117 -14.5 868.5MHz, SF9BW125, 4/5CR
2026-05-05 08:20:54 9.9375°C 7.5% 28 μg/m³ 33 μg/m³ 3.29V v255 52.0797 / 5.11285 5859 ttn.v3 1.179km -123 -3.2 867.9MHz, SF9BW125, 4/5CR
2.83km -119 -3.5 867.9MHz, SF9BW125, 4/5CR
3.237km -109 -10.75 867.9MHz, SF9BW125, 4/5CR
2026-05-05 07:48:41 9.875°C 4.375% 14 μg/m³ 14 μg/m³ 3.29V v255 52.0797 / 5.11285 5857 ttn.v3 1.179km -124 -6.2 867.7MHz, SF9BW125, 4/5CR
3.237km -107 -9.75 867.7MHz, SF9BW125, 4/5CR
2026-05-05 07:33:23 9.9375°C 1.875% 20 μg/m³ 21 μg/m³ 3.29V v255 52.0797 / 5.11285 5856 ttn.v3 1.179km -123 -7.8 868.1MHz, SF12BW125, 4/5CR
2.83km -123 -11.75 868.1MHz, SF12BW125, 4/5CR
- -125 -16.5 868.1MHz, SF12BW125, 4/5CR
2026-05-05 07:16:30 9.9375°C -0.1875% 18 μg/m³ 19 μg/m³ 3.29V v255 52.0796 / 5.11285 5855 ttn.v3 1.177km -120 -12.2 867.5MHz, SF9BW125, 4/5CR
2026-05-05 07:00:24 9.9375°C -2.875% 15 μg/m³ 16 μg/m³ 3.29V v255 52.0796 / 5.11285 5854 ttn.v3 2.825km -118 -11.25 868.5MHz, SF9BW125, 4/5CR
- -118 -13.5 868.5MHz, SF9BW125, 4/5CR
2026-05-05 06:44:17 9.875°C -5.375% 16 μg/m³ 18 μg/m³ 3.29V v255 52.0796 / 5.11285 5853 ttn.v3 2.825km -119 -5.25 867.3MHz, SF9BW125, 4/5CR
1.177km -123 -7 867.3MHz, SF9BW125, 4/5CR
2026-05-05 06:12:03 9.9375°C 1.625% 17 μg/m³ 20 μg/m³ 3.29V v255 52.0796 / 5.11285 5851 ttn.v3 2.825km -119 -2.75 867.1MHz, SF9BW125, 4/5CR
1.177km -123 -3.8 867.1MHz, SF9BW125, 4/5CR
2026-05-05 05:55:56 10.0625°C 7.25% 20 μg/m³ 23 μg/m³ 3.29V v255 52.0796 / 5.11285 5850 ttn.v3 2.825km -119 -3.75 868.1MHz, SF9BW125, 4/5CR
1.177km -124 -9 868.1MHz, SF9BW125, 4/5CR
2026-05-05 05:39:49 10.1875°C 8.8125% 17 μg/m³ 18 μg/m³ 3.29V v255 52.0796 / 5.11285 5849 ttn.v3 2.825km -118 -0.75 867.9MHz, SF9BW125, 4/5CR
- -114 -1.5 867.9MHz, SF9BW125, 4/5CR
1.177km -125 -13 867.9MHz, SF9BW125, 4/5CR
2026-05-05 05:23:42 10.375°C 9.25% 18 μg/m³ 19 μg/m³ 3.29V v255 52.0796 / 5.11285 5848 ttn.v3 2.825km -117 -6.5 868.5MHz, SF9BW125, 4/5CR
2026-05-05 05:07:35 10.5625°C 11.875% 19 μg/m³ 19 μg/m³ 3.29V v255 52.0796 / 5.11285 5847 ttn.v3 2.825km -117 -0.5 867.7MHz, SF9BW125, 4/5CR
1.177km -124 -14.8 867.7MHz, SF9BW125, 4/5CR
2026-05-05 04:35:22 10.875°C 18.3125% 15 μg/m³ 15 μg/m³ 3.29V v255 52.0796 / 5.11285 5845 ttn.v3 2.825km -116 -5.25 867.5MHz, SF9BW125, 4/5CR
1.177km -123 -8 867.5MHz, SF9BW125, 4/5CR
2026-05-05 04:19:15 10.9375°C 19.8125% 15 μg/m³ 15 μg/m³ 3.29V v255 52.0796 / 5.11285 5844 ttn.v3 2.825km -120 -6.5 868.1MHz, SF9BW125, 4/5CR
- -122 -9.5 868.1MHz, SF9BW125, 4/5CR
1.177km -123 -9.8 868.1MHz, SF9BW125, 4/5CR
2026-05-05 04:03:08 11.0625°C 20.0625% 15 μg/m³ 16 μg/m³ 3.29V v255 52.0796 / 5.11285 5843 ttn.v3 2.825km -119 -2.25 867.3MHz, SF9BW125, 4/5CR
1.177km -123 -6 867.3MHz, SF9BW125, 4/5CR
2026-05-05 03:47:01 11.125°C 19.9375% 17 μg/m³ 17 μg/m³ 3.29V v255 52.0796 / 5.11285 5842 ttn.v3 2.825km -117 -8.75 868.5MHz, SF9BW125, 4/5CR
- -117 -11.25 868.5MHz, SF9BW125, 4/5CR
2026-05-05 03:30:54 11.1875°C 20.1875% 15 μg/m³ 17 μg/m³ 3.29V v255 52.0796 / 5.11285 5841 ttn.v3 2.825km -119 -2.5 867.1MHz, SF9BW125, 4/5CR
1.177km -124 -8.2 867.1MHz, SF9BW125, 4/5CR
3.243km -109 -9.75 867.1MHz, SF9BW125, 4/5CR
2026-05-05 02:58:39 11.625°C 24.5625% 17 μg/m³ 19 μg/m³ 3.29V v255 52.0796 / 5.11285 5839 ttn.v3 2.825km -117 -0.5 867.9MHz, SF9BW125, 4/5CR
- -118 -2.5 867.9MHz, SF9BW125, 4/5CR
3.243km -107 -5.5 867.9MHz, SF9BW125, 4/5CR
2026-05-05 02:42:32 11.6875°C 25.75% 18 μg/m³ 19 μg/m³ 3.29V v255 52.0796 / 5.11285 5838 ttn.v3 2.825km -121 -15.25 868.1MHz, SF9BW125, 4/5CR
2026-05-05 02:10:18 12.0625°C 22.125% 18 μg/m³ 21 μg/m³ 3.29V v255 52.0796 / 5.11285 5836 ttn.v3 2.825km -117 -8.25 868.5MHz, SF9BW125, 4/5CR
- -118 -11.25 868.5MHz, SF9BW125, 4/5CR
2026-05-05 01:21:56 12.5625°C 26.9375% 17 μg/m³ 17 μg/m³ 3.29V v255 52.0796 / 5.11285 5833 ttn.v3 2.825km -118 -3.5 867.3MHz, SF9BW125, 4/5CR
- -118 -6.5 867.3MHz, SF9BW125, 4/5CR
1.177km -124 -13 867.3MHz, SF9BW125, 4/5CR
2026-05-05 00:49:41 12.8125°C 22.0625% 19 μg/m³ 20 μg/m³ 3.29V v255 52.0796 / 5.11285 5831 ttn.v3 2.825km -122 -5.25 867.1MHz, SF9BW125, 4/5CR
1.177km -124 -7.2 867.1MHz, SF9BW125, 4/5CR
2026-05-05 00:33:34 13°C 21.125% 20 μg/m³ 23 μg/m³ 3.29V v255 52.0796 / 5.11285 5830 ttn.v3 2.825km -116 -5.5 868.5MHz, SF9BW125, 4/5CR
2026-05-05 00:17:27 13.125°C 23% 19 μg/m³ 23 μg/m³ 3.29V v255 52.0796 / 5.11285 5829 ttn.v3 2.825km -117 -0.25 867.9MHz, SF9BW125, 4/5CR
- -115 -0.75 867.9MHz, SF9BW125, 4/5CR
2026-05-04 23:45:12 13.375°C 23.0625% 27 μg/m³ 29 μg/m³ 3.29V v255 52.0796 / 5.11285 5827 ttn.v3 2.825km -116 -0.25 867.7MHz, SF9BW125, 4/5CR
2026-05-04 23:29:04 13.5625°C 24.4375% 24 μg/m³ 25 μg/m³ 3.29V v255 52.0796 / 5.11285 5826 ttn.v3 2.825km -119 -3.25 868.1MHz, SF9BW125, 4/5CR
1.177km -124 -9.5 868.1MHz, SF9BW125, 4/5CR
2026-05-04 22:56:49 13.6875°C 15.3125% 25 μg/m³ 26 μg/m³ 3.29V v255 52.0796 / 5.11285 5824 ttn.v3 2.825km -117 -5.75 868.5MHz, SF9BW125, 4/5CR
2026-05-04 22:40:42 13.8125°C 17.5% 23 μg/m³ 23 μg/m³ 3.29V v255 52.0796 / 5.11285 5823 ttn.v3 2.825km -119 -3 867.3MHz, SF9BW125, 4/5CR
1.177km -124 -10 867.3MHz, SF9BW125, 4/5CR
2026-05-04 22:24:34 13.9375°C 21.25% 20 μg/m³ 20 μg/m³ 3.29V v255 52.0796 / 5.11285 5822 ttn.v3 2.825km -118 -11 868.3MHz, SF9BW125, 4/5CR
2026-05-04 22:08:27 14.0625°C 17.9375% 30 μg/m³ 36 μg/m³ 3.29V v255 52.0796 / 5.11285 5821 ttn.v3 2.825km -119 -2.5 867.1MHz, SF9BW125, 4/5CR
1.177km -124 -8.5 867.1MHz, SF9BW125, 4/5CR
2026-05-04 21:52:19 14.125°C 20.125% 24 μg/m³ 25 μg/m³ 3.29V v255 52.0796 / 5.11285 5820 ttn.v3 2.825km -118 -2.25 868.1MHz, SF9BW125, 4/5CR
2026-05-04 21:36:12 14.3125°C 26% 24 μg/m³ 25 μg/m³ 3.29V v255 52.0796 / 5.11285 5819 ttn.v3 2.825km -118 -1.75 867.9MHz, SF9BW125, 4/5CR
- -120 -9.75 867.9MHz, SF9BW125, 4/5CR
1.177km -125 -14.5 867.9MHz, SF9BW125, 4/5CR
2026-05-04 21:20:04 14.625°C 31.6875% 27 μg/m³ 27 μg/m³ 3.29V v255 52.0796 / 5.11285 5818 ttn.v3 2.825km -117 -9.25 868.5MHz, SF9BW125, 4/5CR
- -116 -11.25 868.5MHz, SF9BW125, 4/5CR

Message count: 200
Node count: 1

Messages per node

Number of messages in list aboveNodes
200

Statistics per gateway

GatewayNumber of messagesNumber of nodesNodes
1711 (2.825km)
1231 (1.177km)
431
281 (3.243km)
21
21

Filter by dataset